Portada
METAR-TAF:

METAR-TAF

Aeropuertos :

Aeropuerto de Sønderborg

Sønderborg, Dinamarca

latitud: 54-58N, longitud: 009-47E, altitud: 7 m

Observación

El informe se hizo hace 30 minutos, a las 16:20 UTC
Viento 7 kt del sureste
Temperatura 26°C
Humedad 51%
Presión 1020 hPa
Visibilidad 10 km o más

METAR: EKSB 061620Z AUTO 13007KT 9999NDV OVC017/// 26/15 Q1020

Hora: 18:50 (16:50 UTC)

Pronóstico

El informe se hizo hace 8 horas y 16 minutos, a las 08:34 UTC
Pronóstico válido del 06 a las 09 UTC al 06 a las 13 UTC
Viento 6 kt del sur-sureste
Visibilidad 10 km o más
sin nubes por debajo de 1500 m y sin presencia de cumulonimbus.

TAF: EKSB 060834Z 0609/0613 15006KT CAVOK

Observaciones y pronósticos meteorológicos de más de 4000 aeropuertos (mensajes METAR y TAF).

Los puntos amarillos y rojos representan las estaciones disponibles.

Ponga el ratón en el punto deseado para ver el nombre de la estación.

Haga clic para ver las observaciones y los pronósticos meteorológicos.

Para cambiar el mapa : haga clic en los botones verdes con una cruz de color negro para hacer un zoom, en el botón verde con un guión para alejar o en las flechas verdes para mapas adyacentes.


METAR-TAF: